• Join FlightAware (Why Join?)
  • Login
  • US Flag 
01:08PM EDT


 

Airport Tracker/Info


-or-


 

Live Flight TrackerFlight Track Log ✈ N770NC ✈ 12-Jun-2013 ✈ KATL - KLIT

Flight Track Log - Related Links

Times and Time Zones

All times are in EDT time to prevent confusion due to time zone crossing. See the N770NC flight status page for this flight to view local times or setup timezone preferences in your user account.

Time Position Orientation Groundspeed Altitude Reporting Facility
EDT Latitude Longitude Course Direction KTS MPH feet Rate Location/Type
05:59PM 33.6667 -84.5167 270° West 238 274 2,700  Level Atlanta TRACON
06:00PM 33.6833 -84.6000 284° West 263 303 5,400 2,460 Climbing Atlanta TRACON
06:01PM 33.6772 -84.8226 277° West  Level FlightAware Approximate
06:01PM 33.7000 -84.6833 284° West 276 318 7,700  Level Atlanta TRACON
06:02PM 33.6918 -84.9423 280° West  Level FlightAware Approximate
06:03PM 33.7105 -85.0731 280° West  Level FlightAware Approximate
06:03PM 33.6825 -84.9275 265° West 310 357 10,700  Level Atlanta Center
06:04PM 33.7167 -85.2051 270° West  Level FlightAware Approximate
06:04PM 33.6753 -85.0572 266° West 366 421 12,200  Level Atlanta Center
06:05PM 33.6783 -85.1872 272° West 389 448 14,300 1,980 Climbing Atlanta Center
06:06PM 33.6769 -85.3194 269° West 399 459 16,200 1,680 Climbing Atlanta Center
06:07PM 33.6756 -85.4492 269° West 397 457 17,700 1,260 Climbing Atlanta Center
06:08PM 33.6739 -85.5914 269° West 409 471 18,800 1,200 Climbing Atlanta Center
06:09PM 33.6700 -85.7311 268° West 423 487 20,200 1,320 Climbing Atlanta Center
06:10PM 33.6681 -85.8558 269° West 423 487 21,500 1,440 Climbing Atlanta Center
06:11PM 33.6681 -85.9956 270° West 423 487 23,100 1,320 Climbing Atlanta Center
06:12PM 33.6658 -86.1378 269° West 423 487 24,200 1,080 Climbing Atlanta Center
06:13PM 33.6633 -86.2825 269° West 428 493 25,300 1,020 Climbing Atlanta Center
06:14PM 33.6625 -86.4272 270° West 433 498 26,300 1,200 Climbing Atlanta Center
06:15PM 33.6597 -86.5694 269° West 438 504 27,700 840 Climbing Atlanta Center
06:16PM 33.6567 -86.7167 269° West 438 504 28,000 120 Climbing Atlanta Center
06:17PM 33.6553 -86.8664 269° West 444 511 28,000  Level Atlanta Center
06:18PM 33.6664 -87.0214 275° West 454 522 28,000  Level Atlanta Center
06:19PM 33.6772 -87.1742 275° West 461 531 28,000  Level Atlanta Center
06:21PM 33.7367 -87.4022 287° West 457 526 28,000  Level Memphis Center
06:22PM 33.7858 -87.5406 293° West 452 520 28,000  Level Memphis Center
06:23PM 33.8306 -87.6767 292° West 447 514 28,000  Level Memphis Center
06:24PM 33.8650 -87.8181 286° West 441 507 28,000  Level Memphis Center
06:25PM 33.9053 -87.9594 289° West 441 507 28,000  Level Memphis Center
06:26PM 33.9350 -88.0989 284° West 435 501 28,000  Level Memphis Center
06:27PM 33.9647 -88.2483 284° West 451 519 28,000  Level Memphis Center
06:28PM 33.9964 -88.3931 285° West 451 519 28,000  Level Memphis Center
06:29PM 34.0300 -88.5350 286° West 446 513 28,000  Level Memphis Center
06:30PM 34.0611 -88.6772 285° West 446 513 28,000  Level Memphis Center
06:31PM 34.0964 -88.8219 286° West 446 513 28,000  Level Memphis Center
06:32PM 34.1294 -88.9769 284° West 446 513 28,000  Level Memphis Center
06:33PM 34.1603 -89.1172 285° West 441 507 28,000  Level Memphis Center
06:34PM 34.1867 -89.2625 282° West 441 507 28,000  Level Memphis Center
06:35PM 34.1961 -89.4103 274° West 447 514 28,000  Level Memphis Center
06:36PM 34.2075 -89.5458 276° West 442 509 28,000  Level Memphis Center
06:37PM 34.2189 -89.6939 275° West 442 509 28,000 -420 Level Memphis Center
06:38PM 34.2322 -89.8472 276° West 447 514 27,200 -900 Descending Memphis Center
06:39PM 34.2453 -89.9978 276° West 452 520 26,200 -960 Descending Memphis Center
06:40PM 34.2581 -90.1511 276° West 458 527 25,300 -960 Descending Memphis Center
06:41PM 34.2792 -90.3144 279° West 458 527 24,300 -1,020 Descending Memphis Center
06:42PM 34.2958 -90.4578 278° West 452 520 23,300 -1,020 Descending Memphis Center
06:43PM 34.3144 -90.6011 279° West 440 506 22,300 -1,200 Descending Memphis Center
06:44PM 34.3392 -90.7369 282° West 425 489 21,000 -1,740 Descending Memphis Center
06:45PM 34.3636 -90.8706 283° West 420 483 18,900 -2,400 Descending Memphis Center
06:46PM 34.3903 -91.0064 283° West 415 478 16,300 -2,340 Descending Memphis Center
06:47PM 34.4144 -91.1350 283° West 405 466 14,300 -1,860 Descending Memphis Center
06:48PM 34.4389 -91.2436 285° West 384 442 12,800 -1,740 Descending Memphis Center
06:49PM 34.4631 -91.3622 284° West 374 430 11,100 -1,380 Descending Memphis Center
06:50PM 34.4975 -91.4736 291° West 363 418 10,200 -600 Descending Memphis Center
06:51PM 34.5383 -91.5750 296° West 344 396 10,000 -420 Descending Memphis Center
06:52PM 34.5769 -91.6764 295° West 271 312 9,400 -1,260 Descending Memphis Center
06:53PM 34.5967 -91.7700 284° West 268 308 7,400 -1,860 Descending Memphis Center
06:54PM 34.6083 -91.8483 280° West 272 313 5,900 -1,440 Descending Memphis Center
06:55PM 34.6406 -91.9347 294° West 274 315 4,500 -1,380 Descending Memphis Center
06:56PM 34.6817 -91.9986 308° West 258 297 3,200 -1,140 Descending Memphis Center
06:57PM 34.7350 -92.0631 315° West 256 295 2,300 -720 Descending Memphis Center
06:58PM 34.7739 -92.1167 311° West 210 242 1,800 -480 Descending Memphis Center
06:59PM 34.7814 -92.1700 280° West 213 245 1,400 -480 Descending Memphis Center
07:00PM 34.7600 -92.2125 239° Southwest 156 180 900 -540 Descending Memphis Center